sensor_id;sensor_type;location;lat;lon;timestamp;P1;durP1;ratioP1;P2;durP2;ratioP2
45366;SDS011;31100;55.848;37.636;2022-12-18T00:00:31;10.95;;;7.03;;
45366;SDS011;31100;55.848;37.636;2022-12-18T00:02:56;14.15;;;8.18;;
45366;SDS011;31100;55.848;37.636;2022-12-18T00:05:22;14.95;;;7.97;;
45366;SDS011;31100;55.848;37.636;2022-12-18T00:07:47;14.65;;;8.52;;
45366;SDS011;31100;55.848;37.636;2022-12-18T00:10:22;14.27;;;8.35;;
45366;SDS011;31100;55.848;37.636;2022-12-18T00:12:48;14.35;;;8.07;;
45366;SDS011;31100;55.848;37.636;2022-12-18T00:15:14;14.55;;;8.32;;
45366;SDS011;31100;55.848;37.636;2022-12-18T00:17:40;15.68;;;9.45;;
45366;SDS011;31100;55.848;37.636;2022-12-18T00:20:05;13.73;;;8.10;;
45366;SDS011;31100;55.848;37.636;2022-12-18T00:22:32;14.90;;;7.97;;
45366;SDS011;31100;55.848;37.636;2022-12-18T00:24:57;14.80;;;7.95;;
45366;SDS011;31100;55.848;37.636;2022-12-18T00:27:23;15.05;;;8.23;;
45366;SDS011;31100;55.848;37.636;2022-12-18T00:29:50;13.48;;;7.18;;
45366;SDS011;31100;55.848;37.636;2022-12-18T00:32:18;14.43;;;8.00;;
45366;SDS011;31100;55.848;37.636;2022-12-18T00:34:48;16.45;;;9.55;;
45366;SDS011;31100;55.848;37.636;2022-12-18T00:37:14;13.40;;;7.82;;
45366;SDS011;31100;55.848;37.636;2022-12-18T00:39:40;9.68;;;5.95;;
45366;SDS011;31100;55.848;37.636;2022-12-18T00:42:14;13.07;;;7.53;;
45366;SDS011;31100;55.848;37.636;2022-12-18T00:44:59;16.13;;;8.10;;
45366;SDS011;31100;55.848;37.636;2022-12-18T00:47:24;12.35;;;7.40;;
45366;SDS011;31100;55.848;37.636;2022-12-18T00:49:59;17.35;;;8.20;;
45366;SDS011;31100;55.848;37.636;2022-12-18T00:52:25;13.80;;;7.00;;
45366;SDS011;31100;55.848;37.636;2022-12-18T00:54:54;10.38;;;6.18;;
45366;SDS011;31100;55.848;37.636;2022-12-18T00:57:29;13.90;;;7.75;;
45366;SDS011;31100;55.848;37.636;2022-12-18T00:59:55;12.98;;;6.97;;
45366;SDS011;31100;55.848;37.636;2022-12-18T01:02:23;13.60;;;7.95;;
45366;SDS011;31100;55.848;37.636;2022-12-18T01:04:52;11.43;;;6.18;;
45366;SDS011;31100;55.848;37.636;2022-12-18T01:07:18;12.32;;;6.65;;
45366;SDS011;31100;55.848;37.636;2022-12-18T01:09:43;11.43;;;6.25;;
45366;SDS011;31100;55.848;37.636;2022-12-18T01:12:09;10.60;;;6.50;;
45366;SDS011;31100;55.848;37.636;2022-12-18T01:14:34;14.18;;;7.00;;
45366;SDS011;31100;55.848;37.636;2022-12-18T01:17:01;13.05;;;7.55;;
45366;SDS011;31100;55.848;37.636;2022-12-18T01:19:28;13.57;;;7.13;;
45366;SDS011;31100;55.848;37.636;2022-12-18T01:21:54;13.90;;;8.10;;
45366;SDS011;31100;55.848;37.636;2022-12-18T01:24:19;13.18;;;7.22;;
45366;SDS011;31100;55.848;37.636;2022-12-18T01:26:45;14.18;;;7.60;;
45366;SDS011;31100;55.848;37.636;2022-12-18T01:29:11;14.43;;;8.07;;
45366;SDS011;31100;55.848;37.636;2022-12-18T01:31:36;11.23;;;6.75;;
45366;SDS011;31100;55.848;37.636;2022-12-18T01:34:02;13.13;;;6.75;;
45366;SDS011;31100;55.848;37.636;2022-12-18T01:36:30;12.65;;;8.07;;
45366;SDS011;31100;55.848;37.636;2022-12-18T01:38:59;9.75;;;6.65;;
45366;SDS011;31100;55.848;37.636;2022-12-18T01:41:26;12.90;;;7.28;;
45366;SDS011;31100;55.848;37.636;2022-12-18T01:47:23;11.48;;;6.22;;
45366;SDS011;31100;55.848;37.636;2022-12-18T01:49:52;12.85;;;7.30;;
45366;SDS011;31100;55.848;37.636;2022-12-18T01:52:19;9.57;;;5.80;;
45366;SDS011;31100;55.848;37.636;2022-12-18T01:54:45;12.77;;;7.55;;
45366;SDS011;31100;55.848;37.636;2022-12-18T01:57:12;12.88;;;7.03;;
45366;SDS011;31100;55.848;37.636;2022-12-18T01:59:37;13.05;;;7.38;;
45366;SDS011;31100;55.848;37.636;2022-12-18T02:02:04;12.65;;;7.38;;
45366;SDS011;31100;55.848;37.636;2022-12-18T02:04:30;10.85;;;6.00;;
45366;SDS011;31100;55.848;37.636;2022-12-18T02:07:14;9.75;;;6.05;;
45366;SDS011;31100;55.848;37.636;2022-12-18T02:12:19;12.10;;;7.00;;
45366;SDS011;31100;55.848;37.636;2022-12-18T02:14:53;9.45;;;5.35;;
45366;SDS011;31100;55.848;37.636;2022-12-18T02:17:25;12.20;;;7.50;;
45366;SDS011;31100;55.848;37.636;2022-12-18T02:22:54;12.45;;;7.10;;
45366;SDS011;31100;55.848;37.636;2022-12-18T02:27:55;14.20;;;7.05;;
45366;SDS011;31100;55.848;37.636;2022-12-18T02:30:24;9.93;;;6.50;;
45366;SDS011;31100;55.848;37.636;2022-12-18T02:32:52;12.32;;;7.03;;
45366;SDS011;31100;55.848;37.636;2022-12-18T02:35:25;12.05;;;7.65;;
45366;SDS011;31100;55.848;37.636;2022-12-18T02:37:54;10.65;;;6.50;;
45366;SDS011;31100;55.848;37.636;2022-12-18T02:40:21;11.07;;;6.72;;
45366;SDS011;31100;55.848;37.636;2022-12-18T02:42:48;11.38;;;7.32;;
45366;SDS011;31100;55.848;37.636;2022-12-18T02:45:14;10.55;;;7.07;;
45366;SDS011;31100;55.848;37.636;2022-12-18T02:47:40;11.75;;;7.25;;
45366;SDS011;31100;55.848;37.636;2022-12-18T02:55:58;9.77;;;6.10;;
45366;SDS011;31100;55.848;37.636;2022-12-18T03:03:46;11.13;;;6.57;;
45366;SDS011;31100;55.848;37.636;2022-12-18T03:06:39;10.68;;;6.03;;
45366;SDS011;31100;55.848;37.636;2022-12-18T03:09:08;11.77;;;6.75;;
45366;SDS011;31100;55.848;37.636;2022-12-18T03:11:38;9.82;;;5.85;;
45366;SDS011;31100;55.848;37.636;2022-12-18T03:14:24;12.00;;;5.90;;
45366;SDS011;31100;55.848;37.636;2022-12-18T03:16:52;9.82;;;6.03;;
45366;SDS011;31100;55.848;37.636;2022-12-18T03:19:20;11.18;;;6.70;;
45366;SDS011;31100;55.848;37.636;2022-12-18T03:21:49;9.82;;;6.32;;
45366;SDS011;31100;55.848;37.636;2022-12-18T03:24:17;11.10;;;7.15;;
45366;SDS011;31100;55.848;37.636;2022-12-18T03:26:44;10.77;;;5.85;;
45366;SDS011;31100;55.848;37.636;2022-12-18T03:29:12;10.48;;;5.60;;
45366;SDS011;31100;55.848;37.636;2022-12-18T03:31:42;11.98;;;7.55;;
45366;SDS011;31100;55.848;37.636;2022-12-18T03:34:13;9.32;;;5.70;;
45366;SDS011;31100;55.848;37.636;2022-12-18T03:36:41;10.00;;;6.05;;
45366;SDS011;31100;55.848;37.636;2022-12-18T03:39:07;12.20;;;7.10;;
45366;SDS011;31100;55.848;37.636;2022-12-18T03:41:53;8.80;;;5.28;;
45366;SDS011;31100;55.848;37.636;2022-12-18T03:49:38;10.82;;;5.82;;
45366;SDS011;31100;55.848;37.636;2022-12-18T03:52:11;12.07;;;6.15;;
45366;SDS011;31100;55.848;37.636;2022-12-18T03:54:42;10.65;;;5.53;;
45366;SDS011;31100;55.848;37.636;2022-12-18T03:57:18;8.18;;;4.68;;
45366;SDS011;31100;55.848;37.636;2022-12-18T03:59:46;10.38;;;5.85;;
45366;SDS011;31100;55.848;37.636;2022-12-18T04:02:13;9.60;;;5.72;;
45366;SDS011;31100;55.848;37.636;2022-12-18T04:04:41;10.10;;;5.88;;
45366;SDS011;31100;55.848;37.636;2022-12-18T04:07:07;8.90;;;4.80;;
45366;SDS011;31100;55.848;37.636;2022-12-18T04:09:36;10.02;;;5.00;;
45366;SDS011;31100;55.848;37.636;2022-12-18T04:12:02;9.48;;;5.75;;
45366;SDS011;31100;55.848;37.636;2022-12-18T04:14:27;7.95;;;4.65;;
45366;SDS011;31100;55.848;37.636;2022-12-18T04:16:53;8.43;;;5.10;;
45366;SDS011;31100;55.848;37.636;2022-12-18T04:19:18;10.65;;;5.43;;
45366;SDS011;31100;55.848;37.636;2022-12-18T04:21:47;8.43;;;4.47;;
45366;SDS011;31100;55.848;37.636;2022-12-18T04:24:13;10.75;;;6.15;;
45366;SDS011;31100;55.848;37.636;2022-12-18T04:26:38;11.88;;;5.85;;
45366;SDS011;31100;55.848;37.636;2022-12-18T04:29:04;10.23;;;5.63;;
45366;SDS011;31100;55.848;37.636;2022-12-18T04:31:29;9.45;;;5.93;;
45366;SDS011;31100;55.848;37.636;2022-12-18T04:33:55;10.25;;;6.00;;
45366;SDS011;31100;55.848;37.636;2022-12-18T04:36:20;9.65;;;5.70;;
45366;SDS011;31100;55.848;37.636;2022-12-18T04:38:46;9.32;;;5.80;;
45366;SDS011;31100;55.848;37.636;2022-12-18T04:41:14;8.48;;;5.50;;
45366;SDS011;31100;55.848;37.636;2022-12-18T04:43:40;9.85;;;5.85;;
45366;SDS011;31100;55.848;37.636;2022-12-18T04:46:06;11.02;;;5.68;;
45366;SDS011;31100;55.848;37.636;2022-12-18T04:48:33;9.60;;;6.28;;
45366;SDS011;31100;55.848;37.636;2022-12-18T04:50:59;10.68;;;5.90;;
45366;SDS011;31100;55.848;37.636;2022-12-18T04:53:25;11.65;;;6.57;;
45366;SDS011;31100;55.848;37.636;2022-12-18T04:55:50;8.70;;;5.63;;
45366;SDS011;31100;55.848;37.636;2022-12-18T04:58:16;10.93;;;6.10;;
45366;SDS011;31100;55.848;37.636;2022-12-18T05:00:42;9.10;;;5.25;;
45366;SDS011;31100;55.848;37.636;2022-12-18T05:03:07;11.23;;;5.88;;
45366;SDS011;31100;55.848;37.636;2022-12-18T05:05:34;11.20;;;5.97;;
45366;SDS011;31100;55.848;37.636;2022-12-18T05:08:00;10.68;;;6.50;;
45366;SDS011;31100;55.848;37.636;2022-12-18T05:10:26;10.15;;;6.10;;
45366;SDS011;31100;55.848;37.636;2022-12-18T05:12:51;9.30;;;5.60;;
45366;SDS011;31100;55.848;37.636;2022-12-18T05:15:23;9.68;;;5.53;;
45366;SDS011;31100;55.848;37.636;2022-12-18T05:17:58;10.55;;;6.00;;
45366;SDS011;31100;55.848;37.636;2022-12-18T05:20:24;10.57;;;6.10;;
45366;SDS011;31100;55.848;37.636;2022-12-18T05:22:50;9.70;;;5.97;;
45366;SDS011;31100;55.848;37.636;2022-12-18T05:25:17;9.90;;;6.60;;
45366;SDS011;31100;55.848;37.636;2022-12-18T05:27:42;11.07;;;6.53;;
45366;SDS011;31100;55.848;37.636;2022-12-18T05:30:08;8.93;;;4.97;;
45366;SDS011;31100;55.848;37.636;2022-12-18T05:32:34;10.15;;;6.25;;
45366;SDS011;31100;55.848;37.636;2022-12-18T05:35:02;10.65;;;5.72;;
45366;SDS011;31100;55.848;37.636;2022-12-18T05:37:29;11.02;;;6.10;;
45366;SDS011;31100;55.848;37.636;2022-12-18T05:39:54;11.10;;;5.82;;
45366;SDS011;31100;55.848;37.636;2022-12-18T05:42:20;9.43;;;5.60;;
45366;SDS011;31100;55.848;37.636;2022-12-18T05:44:45;10.98;;;6.47;;
45366;SDS011;31100;55.848;37.636;2022-12-18T05:47:11;11.02;;;6.32;;
45366;SDS011;31100;55.848;37.636;2022-12-18T05:49:36;10.77;;;5.78;;
45366;SDS011;31100;55.848;37.636;2022-12-18T05:52:02;9.02;;;5.47;;
45366;SDS011;31100;55.848;37.636;2022-12-18T05:54:27;11.35;;;6.18;;
45366;SDS011;31100;55.848;37.636;2022-12-18T05:56:53;9.88;;;5.82;;
45366;SDS011;31100;55.848;37.636;2022-12-18T05:59:19;10.35;;;5.47;;
45366;SDS011;31100;55.848;37.636;2022-12-18T06:01:47;7.07;;;4.30;;
45366;SDS011;31100;55.848;37.636;2022-12-18T06:04:15;8.40;;;5.00;;
45366;SDS011;31100;55.848;37.636;2022-12-18T06:06:40;10.57;;;6.07;;
45366;SDS011;31100;55.848;37.636;2022-12-18T06:09:06;10.27;;;5.43;;
45366;SDS011;31100;55.848;37.636;2022-12-18T06:11:35;9.45;;;5.70;;
45366;SDS011;31100;55.848;37.636;2022-12-18T06:14:02;9.80;;;5.45;;
45366;SDS011;31100;55.848;37.636;2022-12-18T06:16:28;7.82;;;4.93;;
45366;SDS011;31100;55.848;37.636;2022-12-18T06:18:57;10.38;;;5.95;;
45366;SDS011;31100;55.848;37.636;2022-12-18T06:21:24;8.52;;;5.32;;
45366;SDS011;31100;55.848;37.636;2022-12-18T06:23:49;10.45;;;6.25;;
45366;SDS011;31100;55.848;37.636;2022-12-18T06:26:15;8.65;;;5.93;;
45366;SDS011;31100;55.848;37.636;2022-12-18T06:28:41;9.88;;;5.57;;
45366;SDS011;31100;55.848;37.636;2022-12-18T06:31:07;9.50;;;5.85;;
45366;SDS011;31100;55.848;37.636;2022-12-18T06:33:34;9.57;;;5.15;;
45366;SDS011;31100;55.848;37.636;2022-12-18T06:36:01;9.02;;;5.18;;
45366;SDS011;31100;55.848;37.636;2022-12-18T06:38:31;10.65;;;5.78;;
45366;SDS011;31100;55.848;37.636;2022-12-18T06:40:57;11.07;;;6.45;;
45366;SDS011;31100;55.848;37.636;2022-12-18T06:43:23;10.95;;;6.35;;
45366;SDS011;31100;55.848;37.636;2022-12-18T06:45:48;10.32;;;5.80;;
45366;SDS011;31100;55.848;37.636;2022-12-18T06:48:20;9.85;;;5.05;;
45366;SDS011;31100;55.848;37.636;2022-12-18T06:50:46;8.88;;;5.30;;
45366;SDS011;31100;55.848;37.636;2022-12-18T06:53:12;9.68;;;6.03;;
45366;SDS011;31100;55.848;37.636;2022-12-18T06:55:38;9.15;;;5.53;;
45366;SDS011;31100;55.848;37.636;2022-12-18T06:58:03;9.77;;;5.47;;
45366;SDS011;31100;55.848;37.636;2022-12-18T07:00:29;9.05;;;5.78;;
45366;SDS011;31100;55.848;37.636;2022-12-18T07:02:55;10.65;;;5.30;;
45366;SDS011;31100;55.848;37.636;2022-12-18T07:05:20;11.30;;;5.90;;
45366;SDS011;31100;55.848;37.636;2022-12-18T07:07:46;8.45;;;5.22;;
45366;SDS011;31100;55.848;37.636;2022-12-18T07:10:11;7.72;;;4.40;;
45366;SDS011;31100;55.848;37.636;2022-12-18T07:12:38;9.38;;;5.28;;
45366;SDS011;31100;55.848;37.636;2022-12-18T07:15:04;10.00;;;6.00;;
45366;SDS011;31100;55.848;37.636;2022-12-18T07:17:30;11.15;;;5.85;;
45366;SDS011;31100;55.848;37.636;2022-12-18T07:19:56;8.35;;;4.85;;
45366;SDS011;31100;55.848;37.636;2022-12-18T07:22:21;8.05;;;5.10;;
45366;SDS011;31100;55.848;37.636;2022-12-18T07:24:47;8.75;;;5.68;;
45366;SDS011;31100;55.848;37.636;2022-12-18T07:27:15;9.00;;;5.25;;
45366;SDS011;31100;55.848;37.636;2022-12-18T07:29:41;10.30;;;5.78;;
45366;SDS011;31100;55.848;37.636;2022-12-18T07:32:06;9.52;;;5.55;;
45366;SDS011;31100;55.848;37.636;2022-12-18T07:34:32;8.90;;;5.30;;
45366;SDS011;31100;55.848;37.636;2022-12-18T07:36:58;10.73;;;6.10;;
45366;SDS011;31100;55.848;37.636;2022-12-18T07:39:23;10.55;;;6.20;;
45366;SDS011;31100;55.848;37.636;2022-12-18T07:41:49;9.43;;;5.78;;
45366;SDS011;31100;55.848;37.636;2022-12-18T07:44:37;8.82;;;5.20;;
45366;SDS011;31100;55.848;37.636;2022-12-18T07:47:33;10.23;;;6.05;;
45366;SDS011;31100;55.848;37.636;2022-12-18T07:50:29;8.40;;;5.47;;
45366;SDS011;31100;55.848;37.636;2022-12-18T07:52:58;9.00;;;5.60;;
45366;SDS011;31100;55.848;37.636;2022-12-18T07:55:31;7.55;;;4.55;;
45366;SDS011;31100;55.848;37.636;2022-12-18T07:58:03;9.55;;;5.45;;
45366;SDS011;31100;55.848;37.636;2022-12-18T08:00:44;9.50;;;5.80;;
45366;SDS011;31100;55.848;37.636;2022-12-18T08:03:19;9.05;;;5.38;;
45366;SDS011;31100;55.848;37.636;2022-12-18T08:05:50;8.20;;;5.40;;
45366;SDS011;31100;55.848;37.636;2022-12-18T08:08:16;10.15;;;5.45;;
45366;SDS011;31100;55.848;37.636;2022-12-18T08:10:44;9.85;;;5.10;;
45366;SDS011;31100;55.848;37.636;2022-12-18T08:13:11;9.68;;;5.80;;
45366;SDS011;31100;55.848;37.636;2022-12-18T08:15:37;9.30;;;5.35;;
45366;SDS011;31100;55.848;37.636;2022-12-18T08:18:03;10.90;;;6.38;;
45366;SDS011;31100;55.848;37.636;2022-12-18T08:20:29;9.60;;;5.22;;
45366;SDS011;31100;55.848;37.636;2022-12-18T08:22:54;7.65;;;4.55;;
45366;SDS011;31100;55.848;37.636;2022-12-18T08:25:23;7.90;;;5.50;;
45366;SDS011;31100;55.848;37.636;2022-12-18T08:27:48;7.93;;;5.53;;
45366;SDS011;31100;55.848;37.636;2022-12-18T08:30:14;10.88;;;5.55;;
45366;SDS011;31100;55.848;37.636;2022-12-18T08:32:42;8.95;;;5.43;;
45366;SDS011;31100;55.848;37.636;2022-12-18T08:35:08;9.88;;;4.55;;
45366;SDS011;31100;55.848;37.636;2022-12-18T08:37:34;7.75;;;4.65;;
45366;SDS011;31100;55.848;37.636;2022-12-18T08:40:02;9.68;;;5.60;;
45366;SDS011;31100;55.848;37.636;2022-12-18T08:42:28;10.57;;;5.80;;
45366;SDS011;31100;55.848;37.636;2022-12-18T08:45:12;9.35;;;5.43;;
45366;SDS011;31100;55.848;37.636;2022-12-18T08:47:38;10.30;;;5.50;;
45366;SDS011;31100;55.848;37.636;2022-12-18T08:50:04;9.07;;;5.20;;
45366;SDS011;31100;55.848;37.636;2022-12-18T08:52:31;10.07;;;5.57;;
45366;SDS011;31100;55.848;37.636;2022-12-18T08:55:00;8.10;;;4.60;;
45366;SDS011;31100;55.848;37.636;2022-12-18T08:57:30;9.77;;;5.07;;
45366;SDS011;31100;55.848;37.636;2022-12-18T08:59:56;8.18;;;4.53;;
45366;SDS011;31100;55.848;37.636;2022-12-18T09:02:21;9.25;;;4.53;;
45366;SDS011;31100;55.848;37.636;2022-12-18T09:04:47;9.75;;;6.07;;
45366;SDS011;31100;55.848;37.636;2022-12-18T09:07:13;8.35;;;4.85;;
45366;SDS011;31100;55.848;37.636;2022-12-18T09:09:38;8.10;;;4.90;;
45366;SDS011;31100;55.848;37.636;2022-12-18T09:12:04;7.78;;;4.80;;
45366;SDS011;31100;55.848;37.636;2022-12-18T09:14:30;9.02;;;4.28;;
45366;SDS011;31100;55.848;37.636;2022-12-18T09:16:55;7.90;;;4.38;;
45366;SDS011;31100;55.848;37.636;2022-12-18T09:19:21;7.80;;;4.47;;
45366;SDS011;31100;55.848;37.636;2022-12-18T09:21:46;6.75;;;3.72;;
45366;SDS011;31100;55.848;37.636;2022-12-18T09:24:12;6.72;;;4.13;;
45366;SDS011;31100;55.848;37.636;2022-12-18T09:26:39;7.75;;;4.25;;
45366;SDS011;31100;55.848;37.636;2022-12-18T09:29:06;7.55;;;4.20;;
45366;SDS011;31100;55.848;37.636;2022-12-18T09:31:32;9.40;;;4.90;;
45366;SDS011;31100;55.848;37.636;2022-12-18T09:33:58;7.93;;;4.28;;
45366;SDS011;31100;55.848;37.636;2022-12-18T09:36:24;19.63;;;5.22;;
45366;SDS011;31100;55.848;37.636;2022-12-18T09:38:50;6.60;;;4.18;;
45366;SDS011;31100;55.848;37.636;2022-12-18T09:44:28;7.68;;;4.65;;
45366;SDS011;31100;55.848;37.636;2022-12-18T09:47:06;7.15;;;3.92;;
45366;SDS011;31100;55.848;37.636;2022-12-18T09:49:40;6.85;;;4.15;;
45366;SDS011;31100;55.848;37.636;2022-12-18T09:52:15;5.93;;;3.72;;
45366;SDS011;31100;55.848;37.636;2022-12-18T09:54:41;7.45;;;4.25;;
45366;SDS011;31100;55.848;37.636;2022-12-18T09:57:15;8.15;;;4.82;;
45366;SDS011;31100;55.848;37.636;2022-12-18T09:59:44;7.47;;;4.45;;
45366;SDS011;31100;55.848;37.636;2022-12-18T10:04:42;7.72;;;3.88;;
45366;SDS011;31100;55.848;37.636;2022-12-18T10:07:12;7.07;;;3.72;;
45366;SDS011;31100;55.848;37.636;2022-12-18T10:15:36;6.68;;;3.83;;
45366;SDS011;31100;55.848;37.636;2022-12-18T10:18:13;8.30;;;4.35;;
45366;SDS011;31100;55.848;37.636;2022-12-18T10:20:48;6.55;;;4.07;;
45366;SDS011;31100;55.848;37.636;2022-12-18T10:23:26;7.28;;;4.22;;
45366;SDS011;31100;55.848;37.636;2022-12-18T10:26:12;7.25;;;3.97;;
45366;SDS011;31100;55.848;37.636;2022-12-18T10:28:38;7.00;;;4.50;;
45366;SDS011;31100;55.848;37.636;2022-12-18T10:31:13;7.28;;;4.20;;
45366;SDS011;31100;55.848;37.636;2022-12-18T10:33:42;7.97;;;4.35;;
45366;SDS011;31100;55.848;37.636;2022-12-18T10:36:08;7.53;;;5.05;;
45366;SDS011;31100;55.848;37.636;2022-12-18T10:38:34;6.72;;;3.72;;
45366;SDS011;31100;55.848;37.636;2022-12-18T10:43:29;8.35;;;5.05;;
45366;SDS011;31100;55.848;37.636;2022-12-18T10:46:13;6.53;;;3.90;;
45366;SDS011;31100;55.848;37.636;2022-12-18T10:51:19;7.25;;;4.55;;
45366;SDS011;31100;55.848;37.636;2022-12-18T10:53:59;7.53;;;4.43;;
45366;SDS011;31100;55.848;37.636;2022-12-18T10:56:29;7.22;;;4.55;;
45366;SDS011;31100;55.848;37.636;2022-12-18T10:59:06;7.75;;;4.15;;
45366;SDS011;31100;55.848;37.636;2022-12-18T11:01:51;8.05;;;5.15;;
45366;SDS011;31100;55.848;37.636;2022-12-18T11:04:24;8.20;;;4.32;;
45366;SDS011;31100;55.848;37.636;2022-12-18T11:09:27;7.15;;;3.92;;
45366;SDS011;31100;55.848;37.636;2022-12-18T11:12:19;8.15;;;4.47;;
45366;SDS011;31100;55.848;37.636;2022-12-18T11:17:20;6.82;;;3.88;;
45366;SDS011;31100;55.848;37.636;2022-12-18T11:19:57;7.50;;;4.38;;
45366;SDS011;31100;55.848;37.636;2022-12-18T11:24:55;8.38;;;4.18;;
45366;SDS011;31100;55.848;37.636;2022-12-18T11:27:22;7.35;;;4.43;;
45366;SDS011;31100;55.848;37.636;2022-12-18T11:29:49;8.93;;;4.60;;
45366;SDS011;31100;55.848;37.636;2022-12-18T11:32:27;7.47;;;3.95;;
45366;SDS011;31100;55.848;37.636;2022-12-18T11:35:01;7.20;;;4.22;;
45366;SDS011;31100;55.848;37.636;2022-12-18T11:37:29;8.07;;;4.25;;
45366;SDS011;31100;55.848;37.636;2022-12-18T11:40:06;8.00;;;4.47;;
45366;SDS011;31100;55.848;37.636;2022-12-18T11:42:57;8.25;;;4.25;;
45366;SDS011;31100;55.848;37.636;2022-12-18T11:45:29;7.68;;;4.38;;
45366;SDS011;31100;55.848;37.636;2022-12-18T11:50:26;7.60;;;4.13;;
45366;SDS011;31100;55.848;37.636;2022-12-18T11:53:17;5.72;;;3.15;;
45366;SDS011;31100;55.848;37.636;2022-12-18T11:56:04;7.50;;;3.38;;
45366;SDS011;31100;55.848;37.636;2022-12-18T12:09:15;6.60;;;3.95;;
45366;SDS011;31100;55.848;37.636;2022-12-18T12:30:42;6.53;;;4.50;;
45366;SDS011;31100;55.848;37.636;2022-12-18T12:33:28;5.15;;;2.90;;
45366;SDS011;31100;55.848;37.636;2022-12-18T12:38:30;6.32;;;3.20;;
45366;SDS011;31100;55.848;37.636;2022-12-18T12:41:02;5.80;;;3.25;;
45366;SDS011;31100;55.848;37.636;2022-12-18T12:43:41;4.90;;;2.80;;
45366;SDS011;31100;55.848;37.636;2022-12-18T12:46:09;7.57;;;3.53;;
45366;SDS011;31100;55.848;37.636;2022-12-18T12:53:56;7.57;;;3.90;;
45366;SDS011;31100;55.848;37.636;2022-12-18T12:56:24;5.63;;;3.08;;
45366;SDS011;31100;55.848;37.636;2022-12-18T13:06:57;7.35;;;3.83;;
45366;SDS011;31100;55.848;37.636;2022-12-18T13:09:33;7.80;;;3.67;;
45366;SDS011;31100;55.848;37.636;2022-12-18T13:12:10;8.35;;;4.85;;
45366;SDS011;31100;55.848;37.636;2022-12-18T13:15:12;8.88;;;4.65;;
45366;SDS011;31100;55.848;37.636;2022-12-18T13:17:45;8.73;;;4.70;;
45366;SDS011;31100;55.848;37.636;2022-12-18T13:20:12;10.68;;;4.75;;
45366;SDS011;31100;55.848;37.636;2022-12-18T13:22:43;11.05;;;5.45;;
45366;SDS011;31100;55.848;37.636;2022-12-18T13:35:38;14.82;;;6.75;;
45366;SDS011;31100;55.848;37.636;2022-12-18T13:43:24;16.80;;;8.25;;
45366;SDS011;31100;55.848;37.636;2022-12-18T13:48:40;16.45;;;7.20;;
45366;SDS011;31100;55.848;37.636;2022-12-18T13:51:16;18.05;;;7.93;;
45366;SDS011;31100;55.848;37.636;2022-12-18T13:53:44;15.75;;;7.30;;
45366;SDS011;31100;55.848;37.636;2022-12-18T13:56:26;20.80;;;8.95;;
45366;SDS011;31100;55.848;37.636;2022-12-18T13:59:11;20.73;;;8.38;;
45366;SDS011;31100;55.848;37.636;2022-12-18T14:01:44;20.27;;;9.35;;
45366;SDS011;31100;55.848;37.636;2022-12-18T14:04:22;16.25;;;7.07;;
45366;SDS011;31100;55.848;37.636;2022-12-18T14:06:53;19.50;;;8.23;;
45366;SDS011;31100;55.848;37.636;2022-12-18T14:09:24;15.05;;;7.15;;
45366;SDS011;31100;55.848;37.636;2022-12-18T14:11:51;14.93;;;7.85;;
45366;SDS011;31100;55.848;37.636;2022-12-18T14:14:17;15.77;;;7.45;;
45366;SDS011;31100;55.848;37.636;2022-12-18T14:16:43;13.18;;;6.93;;
45366;SDS011;31100;55.848;37.636;2022-12-18T14:19:14;16.20;;;8.38;;
45366;SDS011;31100;55.848;37.636;2022-12-18T14:21:46;12.88;;;7.25;;
45366;SDS011;31100;55.848;37.636;2022-12-18T14:24:19;11.85;;;6.57;;
45366;SDS011;31100;55.848;37.636;2022-12-18T14:26:47;12.82;;;6.25;;
45366;SDS011;31100;55.848;37.636;2022-12-18T14:29:24;11.15;;;5.80;;
45366;SDS011;31100;55.848;37.636;2022-12-18T14:34:53;9.98;;;5.30;;
45366;SDS011;31100;55.848;37.636;2022-12-18T14:37:25;9.88;;;5.35;;
45366;SDS011;31100;55.848;37.636;2022-12-18T14:39:56;11.80;;;5.35;;
45366;SDS011;31100;55.848;37.636;2022-12-18T14:42:32;8.95;;;4.95;;
45366;SDS011;31100;55.848;37.636;2022-12-18T14:48:08;9.35;;;5.18;;
45366;SDS011;31100;55.848;37.636;2022-12-18T14:50:39;9.70;;;5.00;;
45366;SDS011;31100;55.848;37.636;2022-12-18T14:53:05;8.68;;;4.80;;
45366;SDS011;31100;55.848;37.636;2022-12-18T14:55:31;7.05;;;3.80;;
45366;SDS011;31100;55.848;37.636;2022-12-18T14:57:57;9.50;;;4.68;;
45366;SDS011;31100;55.848;37.636;2022-12-18T15:00:23;8.63;;;4.07;;
45366;SDS011;31100;55.848;37.636;2022-12-18T15:02:54;9.50;;;5.15;;
45366;SDS011;31100;55.848;37.636;2022-12-18T15:05:27;7.57;;;4.03;;
45366;SDS011;31100;55.848;37.636;2022-12-18T15:07:55;8.60;;;4.30;;
45366;SDS011;31100;55.848;37.636;2022-12-18T15:18:02;7.90;;;4.25;;
45366;SDS011;31100;55.848;37.636;2022-12-18T15:20:42;7.07;;;4.63;;
45366;SDS011;31100;55.848;37.636;2022-12-18T15:26:03;9.35;;;5.43;;
45366;SDS011;31100;55.848;37.636;2022-12-18T15:33:45;6.35;;;3.72;;
45366;SDS011;31100;55.848;37.636;2022-12-18T15:36:29;7.18;;;3.72;;
45366;SDS011;31100;55.848;37.636;2022-12-18T15:38:55;6.53;;;3.45;;
45366;SDS011;31100;55.848;37.636;2022-12-18T15:41:23;6.78;;;3.70;;
45366;SDS011;31100;55.848;37.636;2022-12-18T15:43:50;8.38;;;4.90;;
45366;SDS011;31100;55.848;37.636;2022-12-18T15:46:18;8.20;;;4.35;;
45366;SDS011;31100;55.848;37.636;2022-12-18T15:48:46;7.55;;;4.63;;
45366;SDS011;31100;55.848;37.636;2022-12-18T15:53:45;7.55;;;4.50;;
45366;SDS011;31100;55.848;37.636;2022-12-18T15:56:11;7.97;;;4.55;;
45366;SDS011;31100;55.848;37.636;2022-12-18T15:58:58;9.77;;;5.55;;
45366;SDS011;31100;55.848;37.636;2022-12-18T16:01:28;8.73;;;4.88;;
45366;SDS011;31100;55.848;37.636;2022-12-18T16:03:55;9.32;;;5.22;;
45366;SDS011;31100;55.848;37.636;2022-12-18T16:06:21;10.38;;;5.25;;
45366;SDS011;31100;55.848;37.636;2022-12-18T16:08:47;9.63;;;5.07;;
45366;SDS011;31100;55.848;37.636;2022-12-18T16:11:23;9.32;;;5.05;;
45366;SDS011;31100;55.848;37.636;2022-12-18T16:14:23;7.40;;;4.80;;
45366;SDS011;31100;55.848;37.636;2022-12-18T16:16:57;8.00;;;4.55;;
45366;SDS011;31100;55.848;37.636;2022-12-18T16:19:24;8.85;;;5.13;;
45366;SDS011;31100;55.848;37.636;2022-12-18T16:21:51;9.15;;;4.95;;
45366;SDS011;31100;55.848;37.636;2022-12-18T16:24:19;8.57;;;4.97;;
45366;SDS011;31100;55.848;37.636;2022-12-18T16:26:52;9.35;;;5.90;;
45366;SDS011;31100;55.848;37.636;2022-12-18T16:29:19;8.82;;;5.00;;
45366;SDS011;31100;55.848;37.636;2022-12-18T16:31:52;9.27;;;5.70;;
45366;SDS011;31100;55.848;37.636;2022-12-18T16:34:22;10.65;;;5.32;;
45366;SDS011;31100;55.848;37.636;2022-12-18T16:36:49;8.18;;;5.03;;
45366;SDS011;31100;55.848;37.636;2022-12-18T16:39:15;10.68;;;4.90;;
45366;SDS011;31100;55.848;37.636;2022-12-18T16:41:41;9.90;;;5.28;;
45366;SDS011;31100;55.848;37.636;2022-12-18T16:44:06;9.90;;;4.93;;
45366;SDS011;31100;55.848;37.636;2022-12-18T16:46:32;7.70;;;4.63;;
45366;SDS011;31100;55.848;37.636;2022-12-18T16:48:58;8.82;;;5.00;;
45366;SDS011;31100;55.848;37.636;2022-12-18T16:51:26;9.15;;;5.50;;
45366;SDS011;31100;55.848;37.636;2022-12-18T16:53:52;9.30;;;4.80;;
45366;SDS011;31100;55.848;37.636;2022-12-18T16:56:19;9.52;;;5.30;;
45366;SDS011;31100;55.848;37.636;2022-12-18T16:58:51;8.23;;;4.55;;
45366;SDS011;31100;55.848;37.636;2022-12-18T17:01:18;8.82;;;4.43;;
45366;SDS011;31100;55.848;37.636;2022-12-18T17:03:44;7.68;;;4.45;;